createdAt,value
2019-04-30T00:00:00.526Z,20.07
2019-04-30T00:02:45.618Z,19.17
2019-04-30T00:05:20.626Z,19.63
2019-04-30T00:07:58.438Z,20.53
2019-04-30T00:10:36.905Z,19.07
2019-04-30T00:13:03.585Z,19.47
2019-04-30T00:15:35.686Z,20.40
2019-04-30T00:18:06.688Z,21.40
2019-04-30T00:20:45.304Z,21.03
2019-04-30T00:23:18.114Z,20.63
2019-04-30T00:25:49.049Z,21.57
2019-04-30T00:28:20.914Z,22.07
2019-04-30T00:30:51.751Z,21.83
2019-04-30T00:33:25.164Z,21.93
2019-04-30T00:35:58.001Z,22.53
2019-04-30T00:38:36.025Z,21.73
2019-04-30T00:41:06.969Z,22.47
2019-04-30T00:43:37.665Z,22.23
2019-04-30T00:46:09.682Z,22.77
2019-04-30T00:48:40.294Z,22.10
2019-04-30T00:51:18.134Z,22.13
2019-04-30T00:53:51.377Z,22.90
2019-04-30T00:56:24.620Z,22.53
2019-04-30T00:58:57.792Z,22.80
2019-04-30T01:01:48.215Z,23.13
2019-04-30T01:04:34.969Z,23.00
2019-04-30T01:07:08.726Z,22.77
2019-04-30T01:09:43.588Z,23.77
2019-04-30T01:12:35.924Z,23.60
2019-04-30T01:15:06.734Z,22.67
2019-04-30T01:17:34.713Z,23.87
2019-04-30T01:20:05.792Z,22.93
2019-04-30T01:22:38.849Z,23.67
2019-04-30T01:25:13.410Z,22.80
2019-04-30T01:27:45.851Z,23.40
2019-04-30T01:30:18.719Z,23.10
2019-04-30T01:32:56.475Z,23.20
2019-04-30T01:35:23.879Z,23.60
2019-04-30T01:37:54.464Z,24.00
2019-04-30T01:40:25.125Z,23.80
2019-04-30T01:42:56.103Z,23.27
2019-04-30T01:45:30.110Z,22.63
2019-04-30T01:48:08.447Z,24.53
2019-04-30T01:50:33.792Z,23.83
2019-04-30T01:53:04.753Z,22.57
2019-04-30T01:55:47.011Z,24.10
2019-04-30T01:58:34.334Z,23.20
2019-04-30T02:01:06.702Z,23.37
2019-04-30T02:03:37.347Z,23.27
2019-04-30T02:06:11.423Z,23.10
2019-04-30T02:08:43.498Z,23.00
2019-04-30T02:11:14.178Z,23.63
2019-04-30T02:13:46.896Z,23.33
2019-04-30T02:16:21.147Z,22.30
2019-04-30T02:18:53.954Z,23.37
2019-04-30T02:21:25.742Z,23.43
2019-04-30T02:23:56.704Z,23.33
2019-04-30T02:26:35.693Z,23.90
2019-04-30T02:29:06.511Z,22.57
2019-04-30T02:31:40.570Z,22.93
2019-04-30T02:34:11.506Z,22.47
2019-04-30T02:36:43.789Z,22.67
2019-04-30T02:39:14.415Z,23.13
2019-04-30T02:41:45.379Z,22.37
2019-04-30T02:44:16.555Z,22.57
2019-04-30T02:46:50.324Z,21.87
2019-04-30T02:49:21.663Z,23.50
2019-04-30T02:51:52.540Z,24.03
2019-04-30T02:54:29.632Z,23.67
2019-04-30T02:57:02.092Z,24.00
2019-04-30T02:59:32.701Z,24.13
2019-04-30T03:02:03.439Z,23.60
2019-04-30T03:04:34.055Z,23.20
2019-04-30T03:07:04.930Z,23.70
2019-04-30T03:09:39.384Z,23.63
2019-04-30T03:12:10.137Z,23.03
2019-04-30T03:14:40.725Z,24.50
2019-04-30T03:17:23.471Z,24.20
2019-04-30T03:20:03.680Z,23.07
2019-04-30T03:22:34.445Z,23.87
2019-04-30T03:25:05.408Z,23.80
2019-04-30T03:27:36.057Z,24.40
2019-04-30T03:30:11.650Z,24.40
2019-04-30T03:32:42.897Z,23.77
2019-04-30T03:35:13.156Z,23.00
2019-04-30T03:37:54.016Z,22.33
2019-04-30T03:40:24.679Z,22.90
2019-04-30T03:42:55.396Z,24.07
2019-04-30T03:45:30.276Z,22.23
2019-04-30T03:48:01.991Z,22.03
2019-04-30T03:50:48.742Z,22.90
2019-04-30T03:53:05.435Z,24.63
2019-04-30T03:55:40.050Z,22.37
2019-04-30T03:58:11.478Z,24.83
2019-04-30T04:00:47.124Z,23.63
2019-04-30T04:03:22.901Z,25.17
2019-04-30T04:06:21.264Z,24.90
2019-04-30T04:08:55.631Z,26.13
2019-04-30T04:11:29.783Z,25.30
2019-04-30T04:14:00.205Z,26.40
2019-04-30T04:16:32.748Z,26.37
2019-04-30T04:19:09.666Z,24.97
2019-04-30T04:21:40.591Z,26.60
2019-04-30T04:24:11.382Z,26.00
2019-04-30T04:26:43.952Z,25.97
2019-04-30T04:29:14.487Z,26.57
2019-04-30T04:31:56.064Z,26.77
2019-04-30T04:34:26.663Z,26.00
2019-04-30T04:36:59.863Z,26.07
2019-04-30T04:39:29.816Z,27.17
2019-04-30T04:42:00.529Z,26.77
2019-04-30T04:44:31.168Z,27.10
2019-04-30T04:47:01.797Z,28.53
2019-04-30T04:49:32.466Z,25.80
2019-04-30T04:52:03.113Z,26.47
2019-04-30T04:54:33.816Z,26.00
2019-04-30T04:57:14.831Z,26.83
2019-04-30T04:59:42.528Z,27.20
2019-04-30T05:02:32.159Z,26.67
2019-04-30T05:05:02.341Z,26.27
2019-04-30T05:07:32.985Z,26.10
2019-04-30T05:10:03.681Z,25.77
2019-04-30T05:12:34.293Z,26.43
2019-04-30T05:15:05.223Z,24.77
2019-04-30T05:17:50.012Z,25.43
2019-04-30T05:20:20.697Z,26.43
2019-04-30T05:22:52.335Z,26.23
2019-04-30T05:25:29.577Z,26.73
2019-04-30T05:28:00.461Z,25.67
2019-04-30T05:30:35.953Z,25.40
2019-04-30T05:33:23.030Z,25.70
2019-04-30T05:35:53.859Z,27.10
2019-04-30T05:38:24.466Z,27.00
2019-04-30T05:40:55.131Z,26.20
2019-04-30T05:43:25.835Z,25.53
2019-04-30T05:45:58.541Z,25.87
2019-04-30T05:48:29.738Z,25.87
2019-04-30T05:51:04.625Z,27.23
2019-04-30T05:53:35.241Z,26.53
2019-04-30T05:56:11.053Z,27.37
2019-04-30T05:58:41.849Z,26.23
2019-04-30T06:01:12.574Z,26.70
2019-04-30T06:03:43.169Z,26.93
2019-04-30T06:06:13.934Z,27.50
2019-04-30T06:09:06.238Z,26.97
2019-04-30T06:11:53.915Z,26.07
2019-04-30T06:14:48.872Z,26.13
2019-04-30T06:17:19.840Z,26.40
2019-04-30T06:19:51.416Z,27.43
2019-04-30T06:22:22.556Z,25.50
2019-04-30T06:24:53.165Z,25.40
2019-04-30T06:27:23.932Z,25.40
2019-04-30T06:29:54.531Z,25.90
2019-04-30T06:32:25.354Z,24.80
2019-04-30T06:34:56.576Z,25.00
2019-04-30T06:37:28.784Z,24.30
2019-04-30T06:39:59.813Z,23.60
2019-04-30T06:42:31.520Z,24.30
2019-04-30T06:45:02.482Z,23.57
2019-04-30T06:47:34.474Z,22.43
2019-04-30T06:50:05.770Z,22.90
2019-04-30T06:52:36.485Z,22.97
2019-04-30T06:55:07.180Z,23.83
2019-04-30T06:57:38.401Z,21.90
2019-04-30T07:00:12.199Z,21.60
2019-04-30T07:02:43.890Z,21.17
2019-04-30T07:05:18.689Z,19.93
2019-04-30T07:08:09.003Z,21.00
2019-04-30T07:10:36.175Z,20.53
2019-04-30T07:13:14.711Z,21.33
2019-04-30T07:15:45.334Z,20.80
2019-04-30T07:18:16.090Z,22.30
2019-04-30T07:20:48.502Z,22.00
2019-04-30T07:23:19.385Z,21.93
2019-04-30T07:25:51.714Z,20.90
2019-04-30T07:28:43.776Z,22.67
2019-04-30T07:31:11.721Z,23.33
2019-04-30T07:33:34.871Z,23.30
2019-04-30T07:36:05.546Z,23.07
2019-04-30T07:38:43.178Z,22.90
2019-04-30T07:41:09.538Z,24.60
2019-04-30T07:43:40.307Z,25.20
2019-04-30T07:46:11.021Z,24.90
2019-04-30T07:48:41.803Z,27.23
2019-04-30T07:51:13.055Z,27.80
2019-04-30T07:53:43.950Z,25.63
2019-04-30T07:56:25.721Z,25.20
2019-04-30T07:58:46.879Z,24.50
2019-04-30T08:01:19.558Z,25.27
2019-04-30T08:03:52.166Z,26.13
2019-04-30T08:06:24.827Z,27.00
2019-04-30T08:08:58.327Z,27.10
2019-04-30T08:11:29.369Z,26.10
2019-04-30T08:14:00.344Z,27.50
2019-04-30T08:16:31.068Z,26.63
2019-04-30T08:19:01.684Z,26.77
2019-04-30T08:21:32.365Z,24.77
2019-04-30T08:24:05.066Z,26.33
2019-04-30T08:26:36.124Z,26.33
2019-04-30T08:29:06.838Z,27.30
2019-04-30T08:31:41.511Z,26.53
2019-04-30T08:34:12.214Z,26.40
2019-04-30T08:36:42.783Z,26.87
2019-04-30T08:39:13.378Z,25.60
2019-04-30T08:41:44.057Z,26.30
2019-04-30T08:44:14.720Z,26.67
2019-04-30T08:46:45.314Z,25.53
2019-04-30T08:49:16.063Z,26.93
2019-04-30T08:51:48.757Z,26.93
2019-04-30T08:54:19.874Z,26.33
2019-04-30T08:56:50.946Z,26.93
2019-04-30T08:59:21.650Z,26.27
2019-04-30T09:01:52.316Z,25.37
2019-04-30T09:04:25.621Z,26.70
2019-04-30T09:06:56.307Z,25.47
2019-04-30T09:09:26.906Z,24.53
2019-04-30T09:11:59.166Z,24.87
2019-04-30T09:14:30.161Z,26.23
2019-04-30T09:17:00.999Z,26.80
2019-04-30T09:19:31.671Z,24.93
2019-04-30T09:22:02.254Z,23.27
2019-04-30T09:24:32.936Z,23.23
2019-04-30T09:27:03.523Z,22.70
2019-04-30T09:29:34.216Z,22.50
2019-04-30T09:32:04.881Z,22.53
2019-04-30T09:34:35.476Z,22.63
2019-04-30T09:37:06.128Z,22.70
2019-04-30T09:39:36.713Z,23.37
2019-04-30T09:42:09.148Z,22.33
2019-04-30T09:44:39.921Z,22.27
2019-04-30T09:47:11.574Z,21.60
2019-04-30T09:49:42.254Z,22.93
2019-04-30T09:52:12.829Z,21.37
2019-04-30T09:54:43.537Z,22.00
2019-04-30T09:57:15.099Z,20.73
2019-04-30T09:59:45.694Z,22.33
2019-04-30T10:02:16.366Z,21.33
2019-04-30T10:04:47.750Z,20.67
2019-04-30T10:07:19.522Z,20.40
2019-04-30T10:09:50.950Z,21.33
2019-04-30T10:12:22.029Z,19.87
2019-04-30T10:14:52.740Z,21.97
2019-04-30T10:17:39.975Z,21.33
2019-04-30T10:20:12.724Z,20.40
2019-04-30T10:22:43.318Z,19.90
2019-04-30T10:25:14.212Z,21.00
2019-04-30T10:27:44.893Z,21.33
2019-04-30T10:30:16.238Z,19.60
2019-04-30T10:32:49.935Z,19.77
2019-04-30T10:35:23.922Z,20.63
2019-04-30T10:37:55.519Z,19.53
2019-04-30T10:40:28.706Z,21.83
2019-04-30T10:42:59.564Z,18.83
2019-04-30T10:45:30.531Z,19.57
2019-04-30T10:48:01.139Z,19.33
2019-04-30T10:50:33.830Z,18.73
2019-04-30T10:53:04.480Z,20.07
2019-04-30T10:55:35.164Z,21.23
2019-04-30T10:58:05.739Z,23.67
2019-04-30T11:00:38.973Z,23.73
2019-04-30T11:03:19.605Z,21.77
2019-04-30T11:05:43.186Z,21.63
2019-04-30T11:08:13.986Z,23.37
2019-04-30T11:10:48.866Z,24.77
2019-04-30T11:13:19.552Z,24.70
2019-04-30T11:15:50.313Z,24.90
2019-04-30T11:18:21.345Z,24.30
2019-04-30T11:20:52.347Z,24.20
2019-04-30T11:23:23.245Z,23.83
2019-04-30T11:25:54.981Z,23.87
2019-04-30T11:28:27.569Z,23.40
2019-04-30T11:31:26.416Z,23.37
2019-04-30T11:33:58.711Z,22.60
2019-04-30T11:36:38.890Z,25.10
2019-04-30T11:39:11.716Z,25.43
2019-04-30T11:41:42.409Z,24.97
2019-04-30T11:44:13.103Z,24.10
2019-04-30T11:47:29.906Z,24.60
2019-04-30T11:50:00.575Z,24.03
2019-04-30T11:52:31.252Z,22.07
2019-04-30T11:55:02.944Z,23.33
2019-04-30T11:57:33.715Z,22.50
2019-04-30T12:00:08.517Z,24.40
2019-04-30T12:02:40.795Z,22.33
2019-04-30T12:05:13.787Z,24.70
2019-04-30T12:07:46.192Z,22.83
2019-04-30T12:10:29.270Z,23.87
2019-04-30T12:12:59.671Z,22.63
2019-04-30T12:15:30.418Z,23.00
2019-04-30T12:18:01.114Z,22.67
2019-04-30T12:20:39.959Z,21.10
2019-04-30T12:23:11.933Z,21.57
2019-04-30T12:25:42.536Z,22.80
2019-04-30T12:28:13.308Z,22.00
2019-04-30T12:30:44.113Z,21.87
2019-04-30T12:33:14.786Z,22.77
2019-04-30T12:35:45.754Z,22.07
2019-04-30T12:38:16.445Z,20.63
2019-04-30T12:40:47.125Z,21.37
2019-04-30T12:43:18.782Z,20.67
2019-04-30T12:46:02.044Z,20.00
2019-04-30T12:48:44.559Z,21.83
2019-04-30T12:51:19.733Z,21.03
2019-04-30T12:53:57.584Z,19.77
2019-04-30T12:56:47.817Z,20.67
2019-04-30T12:59:22.660Z,21.77
2019-04-30T13:01:53.261Z,21.03
2019-04-30T13:04:23.921Z,20.83
2019-04-30T13:06:54.973Z,21.73
2019-04-30T13:09:26.613Z,20.73
2019-04-30T13:12:00.594Z,22.17
2019-04-30T13:14:32.239Z,20.63
2019-04-30T13:17:03.608Z,20.77
2019-04-30T13:19:35.388Z,20.37
2019-04-30T13:22:06.071Z,20.47
2019-04-30T13:24:36.925Z,21.77
2019-04-30T13:27:09.375Z,20.40
2019-04-30T13:29:58.234Z,20.73
2019-04-30T13:32:32.935Z,20.17
2019-04-30T13:35:03.886Z,20.80
2019-04-30T13:37:57.078Z,20.13
2019-04-30T13:40:33.356Z,20.43
2019-04-30T13:43:05.901Z,20.20
2019-04-30T13:45:36.586Z,21.17
2019-04-30T13:48:08.966Z,21.77
2019-04-30T13:50:41.784Z,20.87
2019-04-30T13:53:12.399Z,21.30
2019-04-30T13:55:48.854Z,21.20
2019-04-30T13:58:19.377Z,20.10
2019-04-30T14:00:50.024Z,21.40
2019-04-30T14:03:23.291Z,21.93
2019-04-30T14:05:54.103Z,22.07
2019-04-30T14:08:29.101Z,22.17
2019-04-30T14:10:59.905Z,22.80
2019-04-30T14:13:30.620Z,23.10
2019-04-30T14:16:03.446Z,21.63
2019-04-30T14:18:48.832Z,21.40
2019-04-30T14:21:32.243Z,22.80
2019-04-30T14:23:52.691Z,22.13
2019-04-30T14:26:40.912Z,22.27
2019-04-30T14:29:17.217Z,22.50
2019-04-30T14:31:52.070Z,23.20
2019-04-30T14:34:22.795Z,24.67
2019-04-30T14:36:53.418Z,23.37
2019-04-30T14:39:26.118Z,23.93
2019-04-30T14:42:00.075Z,23.30
2019-04-30T14:44:34.626Z,23.00
2019-04-30T14:47:11.574Z,23.03
2019-04-30T14:49:59.647Z,22.47
2019-04-30T14:52:24.794Z,22.50
2019-04-30T14:55:13.500Z,22.67
2019-04-30T14:57:45.913Z,24.60
2019-04-30T15:00:31.966Z,23.70
2019-04-30T15:03:16.709Z,24.80
2019-04-30T15:05:52.569Z,23.50
2019-04-30T15:08:25.451Z,23.97
2019-04-30T15:10:56.185Z,25.23
2019-04-30T15:13:29.518Z,25.00
2019-04-30T15:16:00.355Z,24.43
2019-04-30T15:18:32.080Z,24.70
2019-04-30T15:21:02.849Z,24.50
2019-04-30T15:23:56.375Z,25.70
2019-04-30T15:26:41.629Z,25.73
2019-04-30T15:29:16.325Z,24.20
2019-04-30T15:31:48.183Z,24.63
2019-04-30T15:34:19.388Z,24.93
2019-04-30T15:36:50.474Z,24.83
2019-04-30T15:39:26.163Z,25.10
2019-04-30T15:42:09.669Z,24.07
2019-04-30T15:44:45.347Z,24.03
2019-04-30T15:47:19.715Z,24.00
2019-04-30T15:49:50.657Z,22.73
2019-04-30T15:52:35.901Z,23.63
2019-04-30T15:55:06.765Z,24.40
2019-04-30T15:57:45.249Z,22.73
2019-04-30T16:00:18.727Z,23.87
2019-04-30T16:03:04.631Z,25.37
2019-04-30T16:05:40.409Z,25.33
2019-04-30T16:08:15.679Z,24.77
2019-04-30T16:10:51.090Z,23.77
2019-04-30T16:13:46.395Z,25.10
2019-04-30T16:16:19.212Z,24.07
2019-04-30T16:18:50.503Z,25.43
2019-04-30T16:21:22.424Z,24.43
2019-04-30T16:24:12.956Z,23.67
2019-04-30T16:26:49.494Z,24.90
2019-04-30T16:29:16.612Z,25.40
2019-04-30T16:31:49.415Z,24.30
2019-04-30T16:34:24.887Z,23.93
2019-04-30T16:36:56.700Z,24.53
2019-04-30T16:39:29.795Z,26.20
2019-04-30T16:42:00.821Z,25.10
2019-04-30T16:44:38.541Z,24.67
2019-04-30T16:47:14.470Z,24.10
2019-04-30T16:49:45.211Z,24.30
2019-04-30T16:52:18.910Z,24.57
2019-04-30T16:54:52.819Z,23.63
2019-04-30T16:57:30.301Z,22.73
2019-04-30T17:00:00.780Z,23.07
2019-04-30T17:02:32.352Z,24.60
2019-04-30T17:05:08.539Z,22.53
2019-04-30T17:07:43.637Z,23.40
2019-04-30T17:10:16.148Z,24.00
2019-04-30T17:13:01.907Z,23.53
2019-04-30T17:15:43.302Z,23.50
2019-04-30T17:18:13.966Z,23.67
2019-04-30T17:20:48.584Z,24.90
2019-04-30T17:23:19.486Z,24.13
2019-04-30T17:25:51.358Z,23.70
2019-04-30T17:28:22.088Z,24.97
2019-04-30T17:30:59.000Z,24.17
2019-04-30T17:33:29.795Z,23.67
2019-04-30T17:36:00.487Z,23.50
2019-04-30T17:38:34.794Z,24.20
2019-04-30T17:41:07.749Z,24.13
2019-04-30T17:43:41.633Z,23.57
2019-04-30T17:46:15.468Z,22.83
2019-04-30T17:48:46.341Z,24.40
2019-04-30T17:51:18.121Z,23.67
2019-04-30T17:54:06.663Z,23.00
2019-04-30T17:56:38.787Z,23.63
2019-04-30T17:59:09.999Z,24.17
2019-04-30T18:01:42.461Z,24.03
2019-04-30T18:04:14.175Z,23.93
2019-04-30T18:06:45.735Z,23.20
2019-04-30T18:09:19.078Z,23.80
2019-04-30T18:11:50.091Z,23.57
2019-04-30T18:14:20.947Z,23.17
2019-04-30T18:16:51.621Z,23.10
2019-04-30T18:19:46.003Z,23.63
2019-04-30T18:22:30.495Z,23.23
2019-04-30T18:25:05.730Z,23.77
2019-04-30T18:27:46.198Z,22.60
2019-04-30T18:30:19.034Z,23.10
2019-04-30T18:33:02.244Z,23.03
2019-04-30T18:35:32.979Z,22.00
2019-04-30T18:38:03.658Z,23.43
2019-04-30T18:40:35.445Z,22.60
2019-04-30T18:43:18.911Z,22.63
2019-04-30T18:45:53.235Z,22.20
2019-04-30T18:48:31.106Z,22.50
2019-04-30T18:51:15.969Z,23.43
2019-04-30T18:53:35.914Z,22.87
2019-04-30T18:56:12.162Z,22.30
2019-04-30T18:58:42.911Z,22.70
2019-04-30T19:01:14.150Z,21.67
2019-04-30T19:03:45.900Z,21.40
2019-04-30T19:06:26.267Z,22.80
2019-04-30T19:09:16.858Z,22.57
2019-04-30T19:12:11.246Z,21.97
2019-04-30T19:15:02.183Z,22.23
2019-04-30T19:17:52.526Z,22.57
2019-04-30T19:20:33.812Z,21.93
2019-04-30T19:23:06.154Z,22.40
2019-04-30T19:25:38.626Z,21.40
2019-04-30T19:28:14.331Z,21.60
2019-04-30T19:30:57.649Z,22.57
2019-04-30T19:33:29.230Z,22.20
2019-04-30T19:36:00.572Z,22.47
2019-04-30T19:38:31.460Z,21.80
2019-04-30T19:41:02.250Z,22.17
2019-04-30T19:43:33.063Z,20.50
2019-04-30T19:46:09.046Z,22.10
2019-04-30T19:48:41.955Z,22.77
2019-04-30T19:51:14.417Z,22.47
2019-04-30T19:53:51.831Z,21.70
2019-04-30T19:56:23.209Z,22.53
2019-04-30T19:59:02.073Z,21.87
2019-04-30T20:01:28.691Z,21.83
2019-04-30T20:04:00.830Z,21.90
2019-04-30T20:06:31.931Z,22.47
2019-04-30T20:09:03.331Z,21.80
2019-04-30T20:11:42.541Z,21.70
2019-04-30T20:14:18.658Z,22.03
2019-04-30T20:16:51.755Z,23.43
2019-04-30T20:19:23.064Z,21.97
2019-04-30T20:22:05.675Z,23.07
2019-04-30T20:24:42.194Z,21.33
2019-04-30T20:27:21.998Z,22.40
2019-04-30T20:29:55.978Z,21.87
2019-04-30T20:32:36.629Z,20.87
2019-04-30T20:35:07.146Z,20.83
2019-04-30T20:38:00.034Z,21.03
2019-04-30T20:40:43.346Z,21.83
2019-04-30T20:43:08.459Z,20.90
2019-04-30T20:45:39.042Z,21.83
2019-04-30T20:48:10.795Z,22.13
2019-04-30T20:50:50.713Z,20.47
2019-04-30T20:53:21.635Z,21.63
2019-04-30T20:55:54.726Z,21.97
2019-04-30T20:58:25.360Z,21.50
2019-04-30T21:01:04.095Z,21.33
2019-04-30T21:03:29.592Z,21.87
2019-04-30T21:06:11.227Z,21.37
2019-04-30T21:08:47.691Z,22.13
2019-04-30T21:11:30.399Z,21.83
2019-04-30T21:14:08.956Z,22.53
2019-04-30T21:16:46.505Z,22.67
2019-04-30T21:19:17.651Z,22.17
2019-04-30T21:22:00.734Z,22.27
2019-04-30T21:24:32.851Z,22.97
2019-04-30T21:27:04.028Z,21.97
2019-04-30T21:29:35.146Z,22.90
2019-04-30T21:32:07.912Z,21.80
2019-04-30T21:34:44.297Z,22.43
2019-04-30T21:37:37.338Z,21.63
2019-04-30T21:40:09.714Z,23.60
2019-04-30T21:42:52.563Z,23.33
2019-04-30T21:45:25.114Z,22.50
2019-04-30T21:48:19.154Z,23.33
2019-04-30T21:51:11.372Z,22.73
2019-04-30T21:53:46.789Z,23.47
2019-04-30T21:56:19.376Z,23.10
2019-04-30T21:59:01.603Z,23.23
2019-04-30T22:01:32.642Z,23.83
2019-04-30T22:04:14.700Z,23.73
2019-04-30T22:07:00.699Z,23.83
2019-04-30T22:09:43.489Z,23.13
2019-04-30T22:12:23.656Z,23.37
2019-04-30T22:14:55.551Z,22.90
2019-04-30T22:17:26.300Z,23.87
2019-04-30T22:19:59.699Z,23.97
2019-04-30T22:22:30.449Z,24.23
2019-04-30T22:25:01.606Z,22.87
2019-04-30T22:27:33.591Z,24.20
2019-04-30T22:30:04.929Z,24.67
2019-04-30T22:32:51.931Z,24.50
2019-04-30T22:35:44.833Z,24.20
2019-04-30T22:38:29.083Z,25.03
2019-04-30T22:41:06.368Z,24.57
2019-04-30T22:43:38.462Z,24.37
2019-04-30T22:46:14.320Z,23.67
2019-04-30T22:48:47.059Z,23.37
2019-04-30T22:51:18.834Z,24.93
2019-04-30T22:53:51.651Z,25.07
2019-04-30T22:56:25.568Z,25.73
2019-04-30T22:58:56.629Z,23.67
2019-04-30T23:01:34.982Z,24.73
2019-04-30T23:04:14.376Z,26.10
2019-04-30T23:06:45.096Z,25.73
2019-04-30T23:09:16.409Z,25.23
2019-04-30T23:11:47.175Z,24.97
2019-04-30T23:14:17.837Z,25.27
2019-04-30T23:16:56.384Z,25.30
2019-04-30T23:19:31.049Z,25.23
2019-04-30T23:22:07.023Z,25.20
2019-04-30T23:24:37.721Z,25.67
2019-04-30T23:27:13.115Z,25.87
2019-04-30T23:29:43.711Z,25.33
2019-04-30T23:32:17.887Z,26.23
2019-04-30T23:34:51.621Z,25.93
2019-04-30T23:37:24.343Z,26.40
2019-04-30T23:40:23.745Z,25.40
2019-04-30T23:42:55.407Z,25.37
2019-04-30T23:45:27.258Z,25.47
2019-04-30T23:47:57.984Z,26.97
2019-04-30T23:50:28.733Z,26.17
2019-04-30T23:53:10.559Z,25.83
2019-04-30T23:55:41.368Z,27.20
2019-04-30T23:58:12.094Z,26.03
